sensor_id;sensor_type;location;lat;lon;timestamp;P1;durP1;ratioP1;P2;durP2;ratioP2
80926;SDS011;70385;44.538;18.532;2023-07-22T00:00:46;18.42;;;10.52;;
80926;SDS011;70385;44.538;18.532;2023-07-22T00:03:11;20.10;;;10.88;;
80926;SDS011;70385;44.538;18.532;2023-07-22T00:05:37;18.75;;;11.77;;
80926;SDS011;70385;44.538;18.532;2023-07-22T00:08:03;19.33;;;11.52;;
80926;SDS011;70385;44.538;18.532;2023-07-22T00:10:29;17.95;;;11.73;;
80926;SDS011;70385;44.538;18.532;2023-07-22T00:12:54;15.35;;;10.70;;
80926;SDS011;70385;44.538;18.532;2023-07-22T00:15:20;17.08;;;10.48;;
80926;SDS011;70385;44.538;18.532;2023-07-22T00:17:47;20.85;;;11.50;;
80926;SDS011;70385;44.538;18.532;2023-07-22T00:20:14;24.98;;;12.80;;
80926;SDS011;70385;44.538;18.532;2023-07-22T00:22:39;25.38;;;12.05;;
80926;SDS011;70385;44.538;18.532;2023-07-22T00:25:14;22.10;;;13.68;;
80926;SDS011;70385;44.538;18.532;2023-07-22T00:27:41;22.25;;;14.07;;
80926;SDS011;70385;44.538;18.532;2023-07-22T00:30:07;28.50;;;15.48;;
80926;SDS011;70385;44.538;18.532;2023-07-22T00:32:34;25.58;;;17.65;;
80926;SDS011;70385;44.538;18.532;2023-07-22T00:35:02;31.98;;;20.08;;
80926;SDS011;70385;44.538;18.532;2023-07-22T00:37:31;34.78;;;18.42;;
80926;SDS011;70385;44.538;18.532;2023-07-22T00:39:58;35.20;;;19.80;;
80926;SDS011;70385;44.538;18.532;2023-07-22T00:42:26;33.15;;;19.77;;
80926;SDS011;70385;44.538;18.532;2023-07-22T00:44:52;30.48;;;18.88;;
80926;SDS011;70385;44.538;18.532;2023-07-22T00:47:18;35.05;;;19.30;;
80926;SDS011;70385;44.538;18.532;2023-07-22T00:49:46;40.90;;;20.30;;
80926;SDS011;70385;44.538;18.532;2023-07-22T00:52:14;36.70;;;20.95;;
80926;SDS011;70385;44.538;18.532;2023-07-22T00:54:41;39.30;;;21.40;;
80926;SDS011;70385;44.538;18.532;2023-07-22T00:57:07;38.80;;;22.90;;
80926;SDS011;70385;44.538;18.532;2023-07-22T00:59:34;43.40;;;23.15;;
80926;SDS011;70385;44.538;18.532;2023-07-22T01:02:01;40.58;;;20.85;;
80926;SDS011;70385;44.538;18.532;2023-07-22T01:04:26;40.22;;;22.85;;
80926;SDS011;70385;44.538;18.532;2023-07-22T01:06:52;45.80;;;22.77;;
80926;SDS011;70385;44.538;18.532;2023-07-22T01:09:19;39.28;;;22.98;;
80926;SDS011;70385;44.538;18.532;2023-07-22T01:11:45;43.38;;;22.58;;
80926;SDS011;70385;44.538;18.532;2023-07-22T01:14:10;47.00;;;24.13;;
80926;SDS011;70385;44.538;18.532;2023-07-22T01:16:36;45.95;;;22.45;;
80926;SDS011;70385;44.538;18.532;2023-07-22T01:19:02;43.58;;;22.08;;
80926;SDS011;70385;44.538;18.532;2023-07-22T01:21:29;42.03;;;22.83;;
80926;SDS011;70385;44.538;18.532;2023-07-22T01:23:57;36.03;;;21.50;;
80926;SDS011;70385;44.538;18.532;2023-07-22T01:26:23;39.75;;;21.63;;
80926;SDS011;70385;44.538;18.532;2023-07-22T01:28:49;35.38;;;20.67;;
80926;SDS011;70385;44.538;18.532;2023-07-22T01:31:15;34.63;;;19.38;;
80926;SDS011;70385;44.538;18.532;2023-07-22T01:33:40;31.52;;;17.08;;
80926;SDS011;70385;44.538;18.532;2023-07-22T01:36:07;27.83;;;15.32;;
80926;SDS011;70385;44.538;18.532;2023-07-22T01:38:33;37.30;;;14.90;;
80926;SDS011;70385;44.538;18.532;2023-07-22T01:40:59;30.67;;;14.38;;
80926;SDS011;70385;44.538;18.532;2023-07-22T01:43:25;33.13;;;15.38;;
80926;SDS011;70385;44.538;18.532;2023-07-22T01:45:51;33.40;;;15.77;;
80926;SDS011;70385;44.538;18.532;2023-07-22T01:48:18;28.00;;;15.05;;
80926;SDS011;70385;44.538;18.532;2023-07-22T01:50:44;32.97;;;15.75;;
80926;SDS011;70385;44.538;18.532;2023-07-22T01:53:09;25.90;;;15.00;;
80926;SDS011;70385;44.538;18.532;2023-07-22T01:55:35;37.80;;;18.98;;
80926;SDS011;70385;44.538;18.532;2023-07-22T01:58:01;43.03;;;23.45;;
80926;SDS011;70385;44.538;18.532;2023-07-22T02:00:28;51.85;;;26.23;;
80926;SDS011;70385;44.538;18.532;2023-07-22T02:02:53;51.55;;;25.08;;
80926;SDS011;70385;44.538;18.532;2023-07-22T02:05:19;51.70;;;24.17;;
80926;SDS011;70385;44.538;18.532;2023-07-22T02:07:46;47.50;;;24.75;;
80926;SDS011;70385;44.538;18.532;2023-07-22T02:10:11;56.42;;;25.23;;
80926;SDS011;70385;44.538;18.532;2023-07-22T02:12:38;56.05;;;26.52;;
80926;SDS011;70385;44.538;18.532;2023-07-22T02:15:04;52.97;;;24.00;;
80926;SDS011;70385;44.538;18.532;2023-07-22T02:17:30;52.15;;;23.38;;
80926;SDS011;70385;44.538;18.532;2023-07-22T02:19:57;48.35;;;22.70;;
80926;SDS011;70385;44.538;18.532;2023-07-22T02:22:23;39.90;;;22.95;;
80926;SDS011;70385;44.538;18.532;2023-07-22T02:24:48;39.88;;;20.20;;
80926;SDS011;70385;44.538;18.532;2023-07-22T02:27:14;34.00;;;19.02;;
80926;SDS011;70385;44.538;18.532;2023-07-22T02:29:40;39.65;;;22.17;;
80926;SDS011;70385;44.538;18.532;2023-07-22T02:32:06;44.40;;;22.95;;
80926;SDS011;70385;44.538;18.532;2023-07-22T02:34:32;47.28;;;26.60;;
80926;SDS011;70385;44.538;18.532;2023-07-22T02:36:57;46.65;;;25.02;;
80926;SDS011;70385;44.538;18.532;2023-07-22T02:39:23;49.40;;;25.17;;
80926;SDS011;70385;44.538;18.532;2023-07-22T02:41:49;36.42;;;21.35;;
80926;SDS011;70385;44.538;18.532;2023-07-22T02:44:14;36.50;;;22.92;;
80926;SDS011;70385;44.538;18.532;2023-07-22T02:46:40;37.25;;;21.52;;
80926;SDS011;70385;44.538;18.532;2023-07-22T02:49:06;35.40;;;20.60;;
80926;SDS011;70385;44.538;18.532;2023-07-22T02:51:32;35.25;;;21.95;;
80926;SDS011;70385;44.538;18.532;2023-07-22T02:53:58;36.80;;;22.23;;
80926;SDS011;70385;44.538;18.532;2023-07-22T02:56:23;32.53;;;20.33;;
80926;SDS011;70385;44.538;18.532;2023-07-22T02:58:49;37.97;;;20.02;;
80926;SDS011;70385;44.538;18.532;2023-07-22T03:01:15;30.40;;;18.75;;
80926;SDS011;70385;44.538;18.532;2023-07-22T03:03:41;30.92;;;18.90;;
80926;SDS011;70385;44.538;18.532;2023-07-22T03:06:07;27.42;;;16.65;;
80926;SDS011;70385;44.538;18.532;2023-07-22T03:08:35;21.75;;;14.20;;
80926;SDS011;70385;44.538;18.532;2023-07-22T03:11:01;21.63;;;13.60;;
80926;SDS011;70385;44.538;18.532;2023-07-22T03:13:27;24.90;;;12.90;;
80926;SDS011;70385;44.538;18.532;2023-07-22T03:15:55;17.73;;;11.60;;
80926;SDS011;70385;44.538;18.532;2023-07-22T03:18:21;14.95;;;9.02;;
80926;SDS011;70385;44.538;18.532;2023-07-22T03:20:46;16.73;;;9.20;;
80926;SDS011;70385;44.538;18.532;2023-07-22T03:23:12;17.33;;;9.02;;
80926;SDS011;70385;44.538;18.532;2023-07-22T03:25:38;20.55;;;9.25;;
80926;SDS011;70385;44.538;18.532;2023-07-22T03:28:04;16.80;;;9.55;;
80926;SDS011;70385;44.538;18.532;2023-07-22T03:30:31;17.27;;;8.75;;
80926;SDS011;70385;44.538;18.532;2023-07-22T03:32:58;19.33;;;10.52;;
80926;SDS011;70385;44.538;18.532;2023-07-22T03:35:24;15.73;;;10.02;;
80926;SDS011;70385;44.538;18.532;2023-07-22T03:37:49;24.98;;;11.88;;
80926;SDS011;70385;44.538;18.532;2023-07-22T03:40:15;22.63;;;11.90;;
80926;SDS011;70385;44.538;18.532;2023-07-22T03:42:52;26.80;;;13.48;;
80926;SDS011;70385;44.538;18.532;2023-07-22T03:45:20;25.27;;;14.07;;
80926;SDS011;70385;44.538;18.532;2023-07-22T03:47:50;19.30;;;12.95;;
80926;SDS011;70385;44.538;18.532;2023-07-22T03:50:17;19.10;;;11.35;;
80926;SDS011;70385;44.538;18.532;2023-07-22T03:52:43;21.98;;;12.18;;
80926;SDS011;70385;44.538;18.532;2023-07-22T03:55:09;23.92;;;12.45;;
80926;SDS011;70385;44.538;18.532;2023-07-22T03:57:36;23.73;;;12.32;;
80926;SDS011;70385;44.538;18.532;2023-07-22T04:00:02;22.25;;;13.63;;
80926;SDS011;70385;44.538;18.532;2023-07-22T04:02:40;27.83;;;16.55;;
80926;SDS011;70385;44.538;18.532;2023-07-22T04:05:06;26.67;;;15.98;;
80926;SDS011;70385;44.538;18.532;2023-07-22T04:07:33;28.83;;;14.50;;
80926;SDS011;70385;44.538;18.532;2023-07-22T04:10:00;26.17;;;14.98;;
80926;SDS011;70385;44.538;18.532;2023-07-22T04:12:26;31.52;;;17.48;;
80926;SDS011;70385;44.538;18.532;2023-07-22T04:14:51;36.65;;;17.75;;
80926;SDS011;70385;44.538;18.532;2023-07-22T04:17:17;28.77;;;15.98;;
80926;SDS011;70385;44.538;18.532;2023-07-22T04:19:43;31.20;;;16.38;;
80926;SDS011;70385;44.538;18.532;2023-07-22T04:22:12;33.15;;;18.17;;
80926;SDS011;70385;44.538;18.532;2023-07-22T04:24:38;41.70;;;20.27;;
80926;SDS011;70385;44.538;18.532;2023-07-22T04:27:04;36.55;;;18.35;;
80926;SDS011;70385;44.538;18.532;2023-07-22T04:29:31;35.40;;;19.27;;
80926;SDS011;70385;44.538;18.532;2023-07-22T04:31:58;49.67;;;23.48;;
80926;SDS011;70385;44.538;18.532;2023-07-22T04:34:32;50.38;;;23.58;;
80926;SDS011;70385;44.538;18.532;2023-07-22T04:36:58;50.28;;;22.40;;
80926;SDS011;70385;44.538;18.532;2023-07-22T04:39:23;52.70;;;22.77;;
80926;SDS011;70385;44.538;18.532;2023-07-22T04:41:52;55.63;;;22.20;;
80926;SDS011;70385;44.538;18.532;2023-07-22T04:44:18;46.75;;;23.58;;
80926;SDS011;70385;44.538;18.532;2023-07-22T04:46:44;47.10;;;21.58;;
80926;SDS011;70385;44.538;18.532;2023-07-22T04:49:10;54.25;;;25.13;;
80926;SDS011;70385;44.538;18.532;2023-07-22T04:51:36;60.00;;;27.10;;
80926;SDS011;70385;44.538;18.532;2023-07-22T04:54:02;53.05;;;26.13;;
80926;SDS011;70385;44.538;18.532;2023-07-22T04:56:27;54.22;;;24.98;;
80926;SDS011;70385;44.538;18.532;2023-07-22T04:58:53;54.20;;;24.70;;
80926;SDS011;70385;44.538;18.532;2023-07-22T05:01:19;49.90;;;24.08;;
80926;SDS011;70385;44.538;18.532;2023-07-22T05:03:48;48.90;;;22.02;;
80926;SDS011;70385;44.538;18.532;2023-07-22T05:06:14;44.20;;;22.05;;
80926;SDS011;70385;44.538;18.532;2023-07-22T05:08:39;58.05;;;24.75;;
80926;SDS011;70385;44.538;18.532;2023-07-22T05:11:06;47.03;;;23.27;;
80926;SDS011;70385;44.538;18.532;2023-07-22T05:13:32;51.00;;;21.75;;
80926;SDS011;70385;44.538;18.532;2023-07-22T05:15:58;48.95;;;21.75;;
80926;SDS011;70385;44.538;18.532;2023-07-22T05:18:24;42.53;;;20.48;;
80926;SDS011;70385;44.538;18.532;2023-07-22T05:20:49;34.90;;;18.50;;
80926;SDS011;70385;44.538;18.532;2023-07-22T05:23:15;32.70;;;17.35;;
80926;SDS011;70385;44.538;18.532;2023-07-22T05:25:40;33.30;;;17.13;;
80926;SDS011;70385;44.538;18.532;2023-07-22T05:28:06;37.95;;;18.45;;
80926;SDS011;70385;44.538;18.532;2023-07-22T05:30:32;38.08;;;17.33;;
80926;SDS011;70385;44.538;18.532;2023-07-22T05:32:57;30.38;;;16.85;;
80926;SDS011;70385;44.538;18.532;2023-07-22T05:35:23;33.78;;;16.30;;
80926;SDS011;70385;44.538;18.532;2023-07-22T05:37:49;33.10;;;16.08;;
80926;SDS011;70385;44.538;18.532;2023-07-22T05:40:16;29.83;;;15.27;;
80926;SDS011;70385;44.538;18.532;2023-07-22T05:42:43;29.00;;;15.52;;
80926;SDS011;70385;44.538;18.532;2023-07-22T05:45:09;34.28;;;15.80;;
80926;SDS011;70385;44.538;18.532;2023-07-22T05:47:39;31.00;;;15.00;;
80926;SDS011;70385;44.538;18.532;2023-07-22T05:50:04;26.52;;;14.30;;
80926;SDS011;70385;44.538;18.532;2023-07-22T05:52:31;34.40;;;14.45;;
80926;SDS011;70385;44.538;18.532;2023-07-22T05:54:57;33.83;;;14.68;;
80926;SDS011;70385;44.538;18.532;2023-07-22T05:57:23;29.13;;;13.55;;
80926;SDS011;70385;44.538;18.532;2023-07-22T05:59:51;26.92;;;12.05;;
80926;SDS011;70385;44.538;18.532;2023-07-22T06:02:17;26.15;;;12.73;;
80926;SDS011;70385;44.538;18.532;2023-07-22T06:04:47;30.00;;;12.60;;
80926;SDS011;70385;44.538;18.532;2023-07-22T06:07:13;29.58;;;13.45;;
80926;SDS011;70385;44.538;18.532;2023-07-22T06:09:39;27.55;;;13.07;;
80926;SDS011;70385;44.538;18.532;2023-07-22T06:12:05;66.97;;;32.58;;
80926;SDS011;70385;44.538;18.532;2023-07-22T06:14:30;38.67;;;18.88;;
80926;SDS011;70385;44.538;18.532;2023-07-22T06:16:56;41.15;;;18.83;;
80926;SDS011;70385;44.538;18.532;2023-07-22T06:19:23;38.75;;;19.48;;
80926;SDS011;70385;44.538;18.532;2023-07-22T06:21:49;32.20;;;14.10;;
80926;SDS011;70385;44.538;18.532;2023-07-22T06:24:15;32.17;;;14.13;;
80926;SDS011;70385;44.538;18.532;2023-07-22T06:26:41;29.05;;;14.32;;
80926;SDS011;70385;44.538;18.532;2023-07-22T06:29:07;34.50;;;16.20;;
80926;SDS011;70385;44.538;18.532;2023-07-22T06:31:32;31.10;;;15.55;;
80926;SDS011;70385;44.538;18.532;2023-07-22T06:33:58;38.05;;;16.08;;
80926;SDS011;70385;44.538;18.532;2023-07-22T06:36:25;30.63;;;14.68;;
80926;SDS011;70385;44.538;18.532;2023-07-22T06:38:51;30.45;;;14.88;;
80926;SDS011;70385;44.538;18.532;2023-07-22T06:41:17;27.23;;;13.88;;
80926;SDS011;70385;44.538;18.532;2023-07-22T06:43:44;29.48;;;13.23;;
80926;SDS011;70385;44.538;18.532;2023-07-22T06:46:10;32.28;;;12.68;;
80926;SDS011;70385;44.538;18.532;2023-07-22T06:48:36;23.95;;;11.77;;
80926;SDS011;70385;44.538;18.532;2023-07-22T06:51:01;33.38;;;13.65;;
80926;SDS011;70385;44.538;18.532;2023-07-22T06:53:31;29.48;;;13.15;;
80926;SDS011;70385;44.538;18.532;2023-07-22T06:56:01;37.33;;;15.13;;
80926;SDS011;70385;44.538;18.532;2023-07-22T06:58:27;38.50;;;14.68;;
80926;SDS011;70385;44.538;18.532;2023-07-22T07:00:53;36.30;;;14.40;;
80926;SDS011;70385;44.538;18.532;2023-07-22T07:03:21;37.08;;;13.10;;
80926;SDS011;70385;44.538;18.532;2023-07-22T07:05:56;45.03;;;17.77;;
80926;SDS011;70385;44.538;18.532;2023-07-22T07:08:23;45.03;;;16.98;;
80926;SDS011;70385;44.538;18.532;2023-07-22T07:10:50;41.63;;;15.57;;
80926;SDS011;70385;44.538;18.532;2023-07-22T07:13:17;31.00;;;11.05;;
80926;SDS011;70385;44.538;18.532;2023-07-22T07:15:46;20.67;;;8.23;;
80926;SDS011;70385;44.538;18.532;2023-07-22T07:18:15;30.98;;;9.15;;
80926;SDS011;70385;44.538;18.532;2023-07-22T07:20:41;24.23;;;9.02;;
80926;SDS011;70385;44.538;18.532;2023-07-22T07:23:07;27.38;;;10.50;;
80926;SDS011;70385;44.538;18.532;2023-07-22T07:25:34;29.67;;;11.43;;
80926;SDS011;70385;44.538;18.532;2023-07-22T07:28:00;24.50;;;10.73;;
80926;SDS011;70385;44.538;18.532;2023-07-22T07:30:26;26.70;;;10.82;;
80926;SDS011;70385;44.538;18.532;2023-07-22T07:32:52;26.52;;;10.15;;
80926;SDS011;70385;44.538;18.532;2023-07-22T07:35:17;20.50;;;9.32;;
80926;SDS011;70385;44.538;18.532;2023-07-22T07:37:43;20.70;;;9.50;;
80926;SDS011;70385;44.538;18.532;2023-07-22T07:40:08;26.27;;;12.05;;
80926;SDS011;70385;44.538;18.532;2023-07-22T07:42:35;28.17;;;12.25;;
80926;SDS011;70385;44.538;18.532;2023-07-22T07:45:03;28.00;;;11.90;;
80926;SDS011;70385;44.538;18.532;2023-07-22T07:47:30;34.50;;;14.35;;
80926;SDS011;70385;44.538;18.532;2023-07-22T07:49:56;36.53;;;16.27;;
80926;SDS011;70385;44.538;18.532;2023-07-22T07:52:21;46.45;;;18.30;;
80926;SDS011;70385;44.538;18.532;2023-07-22T07:54:49;34.03;;;13.98;;
80926;SDS011;70385;44.538;18.532;2023-07-22T07:57:17;29.73;;;12.18;;
80926;SDS011;70385;44.538;18.532;2023-07-22T07:59:44;29.02;;;10.25;;
80926;SDS011;70385;44.538;18.532;2023-07-22T08:02:10;21.35;;;9.65;;
80926;SDS011;70385;44.538;18.532;2023-07-22T08:04:38;17.23;;;8.88;;
80926;SDS011;70385;44.538;18.532;2023-07-22T08:07:05;18.17;;;9.32;;
80926;SDS011;70385;44.538;18.532;2023-07-22T08:09:31;26.80;;;11.15;;
80926;SDS011;70385;44.538;18.532;2023-07-22T08:11:57;26.92;;;12.75;;
80926;SDS011;70385;44.538;18.532;2023-07-22T08:14:24;22.20;;;12.43;;
80926;SDS011;70385;44.538;18.532;2023-07-22T08:16:50;25.80;;;12.23;;
80926;SDS011;70385;44.538;18.532;2023-07-22T08:19:16;23.52;;;11.27;;
80926;SDS011;70385;44.538;18.532;2023-07-22T08:21:41;30.25;;;14.18;;
80926;SDS011;70385;44.538;18.532;2023-07-22T08:24:07;28.08;;;13.40;;
80926;SDS011;70385;44.538;18.532;2023-07-22T08:26:34;35.17;;;13.23;;
80926;SDS011;70385;44.538;18.532;2023-07-22T08:28:59;32.08;;;13.80;;
80926;SDS011;70385;44.538;18.532;2023-07-22T08:31:25;30.05;;;13.27;;
80926;SDS011;70385;44.538;18.532;2023-07-22T08:33:52;29.27;;;12.05;;
80926;SDS011;70385;44.538;18.532;2023-07-22T08:36:18;21.42;;;8.63;;
80926;SDS011;70385;44.538;18.532;2023-07-22T08:38:43;16.20;;;8.35;;
80926;SDS011;70385;44.538;18.532;2023-07-22T08:41:13;24.23;;;10.45;;
80926;SDS011;70385;44.538;18.532;2023-07-22T08:43:40;14.98;;;7.97;;
80926;SDS011;70385;44.538;18.532;2023-07-22T08:46:06;11.52;;;6.63;;
80926;SDS011;70385;44.538;18.532;2023-07-22T08:48:33;9.57;;;5.53;;
80926;SDS011;70385;44.538;18.532;2023-07-22T08:51:07;13.63;;;5.25;;
80926;SDS011;70385;44.538;18.532;2023-07-22T08:53:38;9.80;;;5.15;;
80926;SDS011;70385;44.538;18.532;2023-07-22T08:56:04;11.90;;;5.07;;
80926;SDS011;70385;44.538;18.532;2023-07-22T08:58:29;12.05;;;4.88;;
80926;SDS011;70385;44.538;18.532;2023-07-22T09:00:56;6.93;;;4.00;;
80926;SDS011;70385;44.538;18.532;2023-07-22T09:03:22;7.50;;;3.55;;
80926;SDS011;70385;44.538;18.532;2023-07-22T09:05:50;8.02;;;3.75;;
80926;SDS011;70385;44.538;18.532;2023-07-22T09:08:18;9.70;;;4.22;;
80926;SDS011;70385;44.538;18.532;2023-07-22T09:10:44;11.15;;;4.22;;
80926;SDS011;70385;44.538;18.532;2023-07-22T09:13:11;6.70;;;3.10;;
80926;SDS011;70385;44.538;18.532;2023-07-22T09:15:39;6.55;;;2.83;;
80926;SDS011;70385;44.538;18.532;2023-07-22T09:18:05;6.10;;;2.85;;
80926;SDS011;70385;44.538;18.532;2023-07-22T09:20:31;5.22;;;3.25;;
80926;SDS011;70385;44.538;18.532;2023-07-22T09:22:58;5.57;;;3.25;;
80926;SDS011;70385;44.538;18.532;2023-07-22T09:25:26;5.47;;;3.10;;
80926;SDS011;70385;44.538;18.532;2023-07-22T09:27:54;6.22;;;3.20;;
80926;SDS011;70385;44.538;18.532;2023-07-22T09:32:52;5.82;;;2.80;;
80926;SDS011;70385;44.538;18.532;2023-07-22T09:35:19;7.03;;;3.03;;
80926;SDS011;70385;44.538;18.532;2023-07-22T09:37:47;8.40;;;3.33;;
80926;SDS011;70385;44.538;18.532;2023-07-22T09:42:51;8.13;;;3.30;;
80926;SDS011;70385;44.538;18.532;2023-07-22T09:45:18;9.90;;;3.42;;
80926;SDS011;70385;44.538;18.532;2023-07-22T09:47:47;9.10;;;3.25;;
80926;SDS011;70385;44.538;18.532;2023-07-22T09:50:15;4.63;;;2.75;;
80926;SDS011;70385;44.538;18.532;2023-07-22T09:52:52;7.97;;;3.25;;
80926;SDS011;70385;44.538;18.532;2023-07-22T09:55:24;6.45;;;2.97;;
80926;SDS011;70385;44.538;18.532;2023-07-22T09:57:54;5.82;;;3.28;;
80926;SDS011;70385;44.538;18.532;2023-07-22T10:00:33;6.45;;;2.63;;
80926;SDS011;70385;44.538;18.532;2023-07-22T10:03:00;5.22;;;2.95;;
80926;SDS011;70385;44.538;18.532;2023-07-22T10:05:27;5.85;;;2.78;;
80926;SDS011;70385;44.538;18.532;2023-07-22T10:07:57;11.15;;;4.47;;
80926;SDS011;70385;44.538;18.532;2023-07-22T10:10:25;7.88;;;2.80;;
80926;SDS011;70385;44.538;18.532;2023-07-22T10:12:55;6.55;;;3.60;;
80926;SDS011;70385;44.538;18.532;2023-07-22T10:15:24;7.55;;;3.75;;
80926;SDS011;70385;44.538;18.532;2023-07-22T10:17:51;5.22;;;2.63;;
80926;SDS011;70385;44.538;18.532;2023-07-22T10:20:19;6.53;;;3.40;;
80926;SDS011;70385;44.538;18.532;2023-07-22T10:22:46;7.00;;;3.30;;
80926;SDS011;70385;44.538;18.532;2023-07-22T10:25:17;7.88;;;4.22;;
80926;SDS011;70385;44.538;18.532;2023-07-22T10:27:45;5.65;;;3.03;;
80926;SDS011;70385;44.538;18.532;2023-07-22T10:30:14;6.78;;;3.22;;
80926;SDS011;70385;44.538;18.532;2023-07-22T10:32:42;4.10;;;2.70;;
80926;SDS011;70385;44.538;18.532;2023-07-22T10:38:06;3.42;;;2.22;;
80926;SDS011;70385;44.538;18.532;2023-07-22T10:40:32;15.98;;;4.32;;
80926;SDS011;70385;44.538;18.532;2023-07-22T10:43:09;7.38;;;2.90;;
80926;SDS011;70385;44.538;18.532;2023-07-22T10:45:42;4.03;;;3.00;;
80926;SDS011;70385;44.538;18.532;2023-07-22T10:48:09;7.63;;;2.97;;
80926;SDS011;70385;44.538;18.532;2023-07-22T10:50:47;4.40;;;3.10;;
80926;SDS011;70385;44.538;18.532;2023-07-22T11:06:34;7.53;;;2.65;;
80926;SDS011;70385;44.538;18.532;2023-07-22T11:09:00;4.50;;;2.42;;
80926;SDS011;70385;44.538;18.532;2023-07-22T11:14:16;8.55;;;2.83;;
80926;SDS011;70385;44.538;18.532;2023-07-22T11:16:44;3.75;;;2.72;;
80926;SDS011;70385;44.538;18.532;2023-07-22T11:19:10;7.15;;;3.28;;
80926;SDS011;70385;44.538;18.532;2023-07-22T11:21:38;7.03;;;3.63;;
80926;SDS011;70385;44.538;18.532;2023-07-22T11:24:06;7.82;;;3.85;;
80926;SDS011;70385;44.538;18.532;2023-07-22T11:26:33;6.30;;;3.88;;
80926;SDS011;70385;44.538;18.532;2023-07-22T11:29:02;9.82;;;4.90;;
80926;SDS011;70385;44.538;18.532;2023-07-22T11:31:33;8.32;;;3.70;;
80926;SDS011;70385;44.538;18.532;2023-07-22T11:34:02;8.60;;;4.38;;
80926;SDS011;70385;44.538;18.532;2023-07-22T11:36:28;7.75;;;4.38;;
80926;SDS011;70385;44.538;18.532;2023-07-22T11:39:00;6.00;;;3.75;;
80926;SDS011;70385;44.538;18.532;2023-07-22T11:41:28;12.13;;;4.30;;
80926;SDS011;70385;44.538;18.532;2023-07-22T11:43:56;9.38;;;4.60;;
80926;SDS011;70385;44.538;18.532;2023-07-22T11:46:23;7.78;;;4.63;;
80926;SDS011;70385;44.538;18.532;2023-07-22T11:48:49;7.35;;;4.28;;
80926;SDS011;70385;44.538;18.532;2023-07-22T11:51:28;6.72;;;3.60;;
80926;SDS011;70385;44.538;18.532;2023-07-22T11:58:51;5.43;;;3.40;;
80926;SDS011;70385;44.538;18.532;2023-07-22T12:01:18;5.90;;;3.10;;
80926;SDS011;70385;44.538;18.532;2023-07-22T12:03:47;5.15;;;3.38;;
80926;SDS011;70385;44.538;18.532;2023-07-22T12:06:15;8.13;;;3.53;;
80926;SDS011;70385;44.538;18.532;2023-07-22T12:08:46;6.90;;;3.33;;
80926;SDS011;70385;44.538;18.532;2023-07-22T12:11:19;5.40;;;3.40;;
80926;SDS011;70385;44.538;18.532;2023-07-22T12:16:35;8.88;;;3.60;;
80926;SDS011;70385;44.538;18.532;2023-07-22T12:19:02;7.85;;;3.50;;
80926;SDS011;70385;44.538;18.532;2023-07-22T12:21:28;5.47;;;3.80;;
80926;SDS011;70385;44.538;18.532;2023-07-22T12:23:54;6.43;;;3.53;;
80926;SDS011;70385;44.538;18.532;2023-07-22T12:26:20;5.25;;;3.67;;
80926;SDS011;70385;44.538;18.532;2023-07-22T12:28:46;7.57;;;3.08;;
80926;SDS011;70385;44.538;18.532;2023-07-22T12:31:13;7.03;;;3.33;;
80926;SDS011;70385;44.538;18.532;2023-07-22T12:33:39;5.30;;;3.20;;
80926;SDS011;70385;44.538;18.532;2023-07-22T12:36:05;8.23;;;3.63;;
80926;SDS011;70385;44.538;18.532;2023-07-22T12:38:31;5.40;;;3.50;;
80926;SDS011;70385;44.538;18.532;2023-07-22T12:40:57;5.25;;;4.35;;
80926;SDS011;70385;44.538;18.532;2023-07-22T12:43:22;6.18;;;3.22;;
80926;SDS011;70385;44.538;18.532;2023-07-22T12:45:48;7.55;;;4.10;;
80926;SDS011;70385;44.538;18.532;2023-07-22T12:48:16;5.53;;;3.20;;
80926;SDS011;70385;44.538;18.532;2023-07-22T12:50:44;5.47;;;2.88;;
80926;SDS011;70385;44.538;18.532;2023-07-22T12:53:13;5.32;;;3.50;;
80926;SDS011;70385;44.538;18.532;2023-07-22T12:55:40;5.05;;;3.60;;
80926;SDS011;70385;44.538;18.532;2023-07-22T12:58:06;4.93;;;3.10;;
80926;SDS011;70385;44.538;18.532;2023-07-22T13:00:31;6.00;;;3.90;;
80926;SDS011;70385;44.538;18.532;2023-07-22T13:02:57;9.27;;;4.40;;
80926;SDS011;70385;44.538;18.532;2023-07-22T13:05:23;3.90;;;3.35;;
80926;SDS011;70385;44.538;18.532;2023-07-22T13:07:49;4.45;;;3.50;;
80926;SDS011;70385;44.538;18.532;2023-07-22T13:10:23;6.38;;;4.57;;
80926;SDS011;70385;44.538;18.532;2023-07-22T13:13:04;7.47;;;3.85;;
80926;SDS011;70385;44.538;18.532;2023-07-22T13:15:31;6.43;;;4.13;;
80926;SDS011;70385;44.538;18.532;2023-07-22T13:17:57;6.80;;;4.30;;
80926;SDS011;70385;44.538;18.532;2023-07-22T13:20:23;5.50;;;3.97;;
80926;SDS011;70385;44.538;18.532;2023-07-22T13:22:49;5.82;;;3.90;;
80926;SDS011;70385;44.538;18.532;2023-07-22T13:25:15;7.78;;;3.65;;
80926;SDS011;70385;44.538;18.532;2023-07-22T13:27:42;6.45;;;3.72;;
80926;SDS011;70385;44.538;18.532;2023-07-22T13:30:08;8.15;;;3.65;;
80926;SDS011;70385;44.538;18.532;2023-07-22T13:32:34;5.97;;;3.78;;
80926;SDS011;70385;44.538;18.532;2023-07-22T13:35:00;6.25;;;3.95;;
80926;SDS011;70385;44.538;18.532;2023-07-22T13:37:25;5.68;;;4.22;;
80926;SDS011;70385;44.538;18.532;2023-07-22T13:39:51;6.28;;;4.47;;
80926;SDS011;70385;44.538;18.532;2023-07-22T13:42:18;6.85;;;4.38;;
80926;SDS011;70385;44.538;18.532;2023-07-22T13:44:44;5.85;;;3.95;;
80926;SDS011;70385;44.538;18.532;2023-07-22T13:47:10;6.22;;;3.88;;
80926;SDS011;70385;44.538;18.532;2023-07-22T13:49:35;6.15;;;4.03;;
80926;SDS011;70385;44.538;18.532;2023-07-22T13:52:01;8.88;;;3.55;;
80926;SDS011;70385;44.538;18.532;2023-07-22T13:54:27;7.03;;;3.50;;
80926;SDS011;70385;44.538;18.532;2023-07-22T13:56:53;5.97;;;3.72;;
80926;SDS011;70385;44.538;18.532;2023-07-22T13:59:20;4.47;;;3.83;;
80926;SDS011;70385;44.538;18.532;2023-07-22T14:01:46;6.93;;;4.15;;
80926;SDS011;70385;44.538;18.532;2023-07-22T14:04:15;6.50;;;4.28;;
80926;SDS011;70385;44.538;18.532;2023-07-22T14:06:40;6.78;;;4.07;;
80926;SDS011;70385;44.538;18.532;2023-07-22T14:09:06;6.00;;;4.18;;
80926;SDS011;70385;44.538;18.532;2023-07-22T14:11:32;6.47;;;4.82;;
80926;SDS011;70385;44.538;18.532;2023-07-22T14:13:57;5.15;;;4.20;;
80926;SDS011;70385;44.538;18.532;2023-07-22T14:16:23;4.85;;;4.03;;
80926;SDS011;70385;44.538;18.532;2023-07-22T14:18:49;7.70;;;4.53;;
80926;SDS011;70385;44.538;18.532;2023-07-22T14:21:17;9.70;;;4.90;;
80926;SDS011;70385;44.538;18.532;2023-07-22T14:23:42;6.53;;;5.53;;
80926;SDS011;70385;44.538;18.532;2023-07-22T14:26:09;8.70;;;4.80;;
80926;SDS011;70385;44.538;18.532;2023-07-22T14:28:37;9.77;;;5.05;;
80926;SDS011;70385;44.538;18.532;2023-07-22T14:31:03;5.32;;;4.10;;
80926;SDS011;70385;44.538;18.532;2023-07-22T14:33:30;8.18;;;4.30;;
80926;SDS011;70385;44.538;18.532;2023-07-22T14:35:56;5.00;;;4.15;;
80926;SDS011;70385;44.538;18.532;2023-07-22T14:38:21;5.35;;;4.00;;
80926;SDS011;70385;44.538;18.532;2023-07-22T14:40:48;8.55;;;4.28;;
80926;SDS011;70385;44.538;18.532;2023-07-22T14:43:13;4.47;;;4.05;;
80926;SDS011;70385;44.538;18.532;2023-07-22T14:45:39;6.47;;;4.28;;
80926;SDS011;70385;44.538;18.532;2023-07-22T14:48:05;6.75;;;4.07;;